sensor_id;sensor_type;location;lat;lon;timestamp;temperature;humidity
20208;DHT22;10263;48.716;8.760;2023-02-08T00:02:00;-5.00;99.90
20208;DHT22;10263;48.716;8.760;2023-02-08T00:06:54;-5.00;99.90
20208;DHT22;10263;48.716;8.760;2023-02-08T00:16:42;-5.10;99.90
20208;DHT22;10263;48.716;8.760;2023-02-08T00:19:10;-5.20;99.90
20208;DHT22;10263;48.716;8.760;2023-02-08T00:31:26;-5.20;99.90
20208;DHT22;10263;48.716;8.760;2023-02-08T00:36:21;-5.30;99.90
20208;DHT22;10263;48.716;8.760;2023-02-08T00:51:12;-5.40;99.90
20208;DHT22;10263;48.716;8.760;2023-02-08T00:53:44;-5.50;99.90
20208;DHT22;10263;48.716;8.760;2023-02-08T00:56:12;-5.50;99.90
20208;DHT22;10263;48.716;8.760;2023-02-08T00:58:39;-5.60;99.90
20208;DHT22;10263;48.716;8.760;2023-02-08T01:03:35;-5.60;99.90
20208;DHT22;10263;48.716;8.760;2023-02-08T01:06:03;-5.60;99.90
20208;DHT22;10263;48.716;8.760;2023-02-08T01:11:04;-5.60;99.90
20208;DHT22;10263;48.716;8.760;2023-02-08T01:16:05;-5.70;99.90
20208;DHT22;10263;48.716;8.760;2023-02-08T01:18:32;-5.90;99.90
20208;DHT22;10263;48.716;8.760;2023-02-08T01:21:03;-6.50;99.90
20208;DHT22;10263;48.716;8.760;2023-02-08T01:28:26;-5.90;99.90
20208;DHT22;10263;48.716;8.760;2023-02-08T01:35:49;-5.90;99.90
20208;DHT22;10263;48.716;8.760;2023-02-08T01:43:19;-6.00;99.90
20208;DHT22;10263;48.716;8.760;2023-02-08T01:45:48;-6.00;99.90
20208;DHT22;10263;48.716;8.760;2023-02-08T01:48:17;-6.10;99.90
20208;DHT22;10263;48.716;8.760;2023-02-08T01:50:50;-6.00;99.90
20208;DHT22;10263;48.716;8.760;2023-02-08T01:55:48;-4.50;99.90
20208;DHT22;10263;48.716;8.760;2023-02-08T01:58:17;-6.10;99.90
20208;DHT22;10263;48.716;8.760;2023-02-08T02:00:45;-6.20;99.90
20208;DHT22;10263;48.716;8.760;2023-02-08T02:03:14;-6.30;99.90
20208;DHT22;10263;48.716;8.760;2023-02-08T02:05:42;-6.20;99.90
20208;DHT22;10263;48.716;8.760;2023-02-08T02:08:11;-6.20;99.90
20208;DHT22;10263;48.716;8.760;2023-02-08T02:10:39;-4.40;99.90
20208;DHT22;10263;48.716;8.760;2023-02-08T02:13:09;-6.30;99.90
20208;DHT22;10263;48.716;8.760;2023-02-08T02:18:05;-6.30;99.90
20208;DHT22;10263;48.716;8.760;2023-02-08T02:20:57;-6.30;99.90
20208;DHT22;10263;48.716;8.760;2023-02-08T02:23:55;-6.30;99.90
20208;DHT22;10263;48.716;8.760;2023-02-08T02:29:55;-6.40;99.90
20208;DHT22;10263;48.716;8.760;2023-02-08T02:32:49;-6.50;99.90
20208;DHT22;10263;48.716;8.760;2023-02-08T02:35:23;-6.50;99.90
20208;DHT22;10263;48.716;8.760;2023-02-08T02:37:58;-6.40;99.90
20208;DHT22;10263;48.716;8.760;2023-02-08T02:40:35;-6.60;99.90
20208;DHT22;10263;48.716;8.760;2023-02-08T02:43:10;-6.50;99.90
20208;DHT22;10263;48.716;8.760;2023-02-08T02:46:04;-6.50;99.90
20208;DHT22;10263;48.716;8.760;2023-02-08T02:48:39;-6.60;99.90
20208;DHT22;10263;48.716;8.760;2023-02-08T02:51:09;-6.60;99.90
20208;DHT22;10263;48.716;8.760;2023-02-08T02:53:43;-6.60;99.90
20208;DHT22;10263;48.716;8.760;2023-02-08T02:56:14;-6.60;99.90
20208;DHT22;10263;48.716;8.760;2023-02-08T02:58:43;-6.60;99.90
20208;DHT22;10263;48.716;8.760;2023-02-08T03:01:10;-6.60;99.90
20208;DHT22;10263;48.716;8.760;2023-02-08T03:03:39;-6.60;99.90
20208;DHT22;10263;48.716;8.760;2023-02-08T03:06:10;-6.70;99.90
20208;DHT22;10263;48.716;8.760;2023-02-08T03:09:06;-6.70;99.90
20208;DHT22;10263;48.716;8.760;2023-02-08T03:11:35;-6.60;99.90
20208;DHT22;10263;48.716;8.760;2023-02-08T03:14:17;-6.70;99.90
20208;DHT22;10263;48.716;8.760;2023-02-08T03:16:59;-6.70;99.90
20208;DHT22;10263;48.716;8.760;2023-02-08T03:19:34;-6.70;99.90
20208;DHT22;10263;48.716;8.760;2023-02-08T03:22:08;-6.80;99.90
20208;DHT22;10263;48.716;8.760;2023-02-08T03:24:41;-6.80;99.90
20208;DHT22;10263;48.716;8.760;2023-02-08T03:27:16;-6.80;99.90
20208;DHT22;10263;48.716;8.760;2023-02-08T03:29:49;-6.00;99.90
20208;DHT22;10263;48.716;8.760;2023-02-08T03:32:22;-5.20;99.90
20208;DHT22;10263;48.716;8.760;2023-02-08T03:34:54;-6.90;99.90
20208;DHT22;10263;48.716;8.760;2023-02-08T03:37:25;-7.00;99.90
20208;DHT22;10263;48.716;8.760;2023-02-08T03:40:01;-6.90;99.90
20208;DHT22;10263;48.716;8.760;2023-02-08T03:42:31;-4.20;99.90
20208;DHT22;10263;48.716;8.760;2023-02-08T03:45:01;-7.00;99.90
20208;DHT22;10263;48.716;8.760;2023-02-08T03:47:34;-7.00;99.90
20208;DHT22;10263;48.716;8.760;2023-02-08T03:50:08;-7.10;99.90
20208;DHT22;10263;48.716;8.760;2023-02-08T03:52:36;-7.00;99.90
20208;DHT22;10263;48.716;8.760;2023-02-08T03:55:08;-7.00;99.90
20208;DHT22;10263;48.716;8.760;2023-02-08T03:57:39;-7.10;99.90
20208;DHT22;10263;48.716;8.760;2023-02-08T04:00:12;-7.20;99.90
20208;DHT22;10263;48.716;8.760;2023-02-08T04:02:44;-7.10;99.90
20208;DHT22;10263;48.716;8.760;2023-02-08T04:05:14;-7.10;99.90
20208;DHT22;10263;48.716;8.760;2023-02-08T04:12:35;-7.10;99.90
20208;DHT22;10263;48.716;8.760;2023-02-08T04:22:26;-7.40;99.90
20208;DHT22;10263;48.716;8.760;2023-02-08T04:34:41;-7.30;99.90
20208;DHT22;10263;48.716;8.760;2023-02-08T04:39:37;-7.00;99.90
20208;DHT22;10263;48.716;8.760;2023-02-08T04:44:31;-7.40;99.90
20208;DHT22;10263;48.716;8.760;2023-02-08T04:46:59;-7.40;99.90
20208;DHT22;10263;48.716;8.760;2023-02-08T04:56:48;-7.60;99.90
20208;DHT22;10263;48.716;8.760;2023-02-08T05:01:43;-7.50;99.90
20208;DHT22;10263;48.716;8.760;2023-02-08T05:04:10;-7.10;99.90
20208;DHT22;10263;48.716;8.760;2023-02-08T05:09:06;-7.50;99.90
20208;DHT22;10263;48.716;8.760;2023-02-08T05:11:33;-7.50;99.90
20208;DHT22;10263;48.716;8.760;2023-02-08T05:14:02;-7.50;99.90
20208;DHT22;10263;48.716;8.760;2023-02-08T05:16:29;-7.60;99.90
20208;DHT22;10263;48.716;8.760;2023-02-08T05:26:18;-7.70;99.90
20208;DHT22;10263;48.716;8.760;2023-02-08T05:31:17;-7.70;99.90
20208;DHT22;10263;48.716;8.760;2023-02-08T05:43:32;-7.70;99.90
20208;DHT22;10263;48.716;8.760;2023-02-08T05:48:29;-7.90;99.90
20208;DHT22;10263;48.716;8.760;2023-02-08T05:50:56;-7.90;99.90
20208;DHT22;10263;48.716;8.760;2023-02-08T06:05:41;-7.90;99.90
20208;DHT22;10263;48.716;8.760;2023-02-08T06:08:08;-7.80;99.90
20208;DHT22;10263;48.716;8.760;2023-02-08T06:22:53;-7.80;99.90
20208;DHT22;10263;48.716;8.760;2023-02-08T06:27:47;-7.90;99.90
20208;DHT22;10263;48.716;8.760;2023-02-08T06:37:36;-8.00;99.90
20208;DHT22;10263;48.716;8.760;2023-02-08T06:40:06;-8.00;99.90
20208;DHT22;10263;48.716;8.760;2023-02-08T06:42:32;-7.90;99.90
20208;DHT22;10263;48.716;8.760;2023-02-08T06:57:17;-8.00;99.90
20208;DHT22;10263;48.716;8.760;2023-02-08T06:59:44;-8.00;99.90
20208;DHT22;10263;48.716;8.760;2023-02-08T07:02:12;-8.00;99.90
20208;DHT22;10263;48.716;8.760;2023-02-08T07:07:06;-7.90;99.90
20208;DHT22;10263;48.716;8.760;2023-02-08T07:09:34;-7.90;99.90
20208;DHT22;10263;48.716;8.760;2023-02-08T07:14:31;-7.70;99.90
20208;DHT22;10263;48.716;8.760;2023-02-08T07:16:59;-7.80;99.90
20208;DHT22;10263;48.716;8.760;2023-02-08T07:24:21;-7.60;99.90
20208;DHT22;10263;48.716;8.760;2023-02-08T07:31:43;-7.60;99.90
20208;DHT22;10263;48.716;8.760;2023-02-08T07:34:10;-7.40;99.90
20208;DHT22;10263;48.716;8.760;2023-02-08T07:48:55;-7.10;99.90
20208;DHT22;10263;48.716;8.760;2023-02-08T07:51:22;-7.00;99.90
20208;DHT22;10263;48.716;8.760;2023-02-08T07:58:43;-6.80;99.90
20208;DHT22;10263;48.716;8.760;2023-02-08T08:06:06;-6.70;99.90
20208;DHT22;10263;48.716;8.760;2023-02-08T08:15:55;-6.40;99.90
20208;DHT22;10263;48.716;8.760;2023-02-08T08:23:17;-6.30;99.90
20208;DHT22;10263;48.716;8.760;2023-02-08T08:30:41;-5.90;99.90
20208;DHT22;10263;48.716;8.760;2023-02-08T08:40:32;-5.50;99.90
20208;DHT22;10263;48.716;8.760;2023-02-08T08:42:59;-5.40;99.90
20208;DHT22;10263;48.716;8.760;2023-02-08T08:45:25;-5.10;99.90
20208;DHT22;10263;48.716;8.760;2023-02-08T08:47:52;-5.00;99.90
20208;DHT22;10263;48.716;8.760;2023-02-08T08:55:14;-4.80;99.90
20208;DHT22;10263;48.716;8.760;2023-02-08T08:57:42;-4.70;99.90
20208;DHT22;10263;48.716;8.760;2023-02-08T09:00:10;-4.60;99.90
20208;DHT22;10263;48.716;8.760;2023-02-08T09:05:05;-4.20;99.90
20208;DHT22;10263;48.716;8.760;2023-02-08T09:07:32;-4.00;99.90
20208;DHT22;10263;48.716;8.760;2023-02-08T09:14:55;-3.60;99.90
20208;DHT22;10263;48.716;8.760;2023-02-08T09:32:07;-2.20;99.90
20208;DHT22;10263;48.716;8.760;2023-02-08T09:37:01;-1.70;99.90
20208;DHT22;10263;48.716;8.760;2023-02-08T09:42:11;-1.30;99.90
20208;DHT22;10263;48.716;8.760;2023-02-08T09:44:46;-1.10;99.90
20208;DHT22;10263;48.716;8.760;2023-02-08T09:47:19;-0.70;99.90
20208;DHT22;10263;48.716;8.760;2023-02-08T09:49:55;-0.30;99.90
20208;DHT22;10263;48.716;8.760;2023-02-08T09:52:26;0.10;99.90
20208;DHT22;10263;48.716;8.760;2023-02-08T09:54:58;0.60;99.90
20208;DHT22;10263;48.716;8.760;2023-02-08T09:57:29;1.20;99.90
20208;DHT22;10263;48.716;8.760;2023-02-08T10:00:00;1.70;99.90
20208;DHT22;10263;48.716;8.760;2023-02-08T10:02:32;2.30;99.00
20208;DHT22;10263;48.716;8.760;2023-02-08T10:05:03;2.50;97.90
20208;DHT22;10263;48.716;8.760;2023-02-08T10:07:31;3.20;96.30
20208;DHT22;10263;48.716;8.760;2023-02-08T10:10:01;3.40;94.10
20208;DHT22;10263;48.716;8.760;2023-02-08T10:12:37;3.80;91.90
20208;DHT22;10263;48.716;8.760;2023-02-08T10:15:24;4.30;91.20
20208;DHT22;10263;48.716;8.760;2023-02-08T10:18:19;4.70;90.70
20208;DHT22;10263;48.716;8.760;2023-02-08T10:20:59;5.50;90.00
20208;DHT22;10263;48.716;8.760;2023-02-08T10:23:47;5.70;85.70
20208;DHT22;10263;48.716;8.760;2023-02-08T10:26:25;5.70;84.20
20208;DHT22;10263;48.716;8.760;2023-02-08T10:29:34;5.90;80.00
20208;DHT22;10263;48.716;8.760;2023-02-08T10:32:17;6.10;79.20
20208;DHT22;10263;48.716;8.760;2023-02-08T10:34:50;8.20;77.40
20208;DHT22;10263;48.716;8.760;2023-02-08T10:37:19;6.80;78.20
20208;DHT22;10263;48.716;8.760;2023-02-08T10:39:48;6.90;72.00
20208;DHT22;10263;48.716;8.760;2023-02-08T10:42:18;6.90;71.80
20208;DHT22;10263;48.716;8.760;2023-02-08T10:45:01;7.30;70.70
20208;DHT22;10263;48.716;8.760;2023-02-08T10:47:40;7.50;67.20
20208;DHT22;10263;48.716;8.760;2023-02-08T10:50:18;7.60;70.10
20208;DHT22;10263;48.716;8.760;2023-02-08T10:55:17;7.80;65.50
20208;DHT22;10263;48.716;8.760;2023-02-08T10:57:45;7.80;63.90
20208;DHT22;10263;48.716;8.760;2023-02-08T11:00:18;7.80;63.60
20208;DHT22;10263;48.716;8.760;2023-02-08T11:02:47;8.10;66.10
20208;DHT22;10263;48.716;8.760;2023-02-08T11:05:20;7.90;63.00
20208;DHT22;10263;48.716;8.760;2023-02-08T11:08:04;7.80;63.90
20208;DHT22;10263;48.716;8.760;2023-02-08T11:10:32;8.00;65.00
20208;DHT22;10263;48.716;8.760;2023-02-08T11:13:02;8.10;62.70
20208;DHT22;10263;48.716;8.760;2023-02-08T11:15:37;8.20;63.20
20208;DHT22;10263;48.716;8.760;2023-02-08T11:18:06;8.90;64.00
20208;DHT22;10263;48.716;8.760;2023-02-08T11:20:47;8.40;60.00
20208;DHT22;10263;48.716;8.760;2023-02-08T11:23:21;8.40;63.70
20208;DHT22;10263;48.716;8.760;2023-02-08T11:28:26;8.30;63.40
20208;DHT22;10263;48.716;8.760;2023-02-08T11:31:01;8.50;61.30
20208;DHT22;10263;48.716;8.760;2023-02-08T11:33:28;6.70;59.30
20208;DHT22;10263;48.716;8.760;2023-02-08T11:35:59;8.70;62.50
20208;DHT22;10263;48.716;8.760;2023-02-08T11:38:27;9.00;64.70
20208;DHT22;10263;48.716;8.760;2023-02-08T11:40:56;8.70;61.40
20208;DHT22;10263;48.716;8.760;2023-02-08T11:43:25;8.90;60.90
20208;DHT22;10263;48.716;8.760;2023-02-08T11:45:53;8.80;58.10
20208;DHT22;10263;48.716;8.760;2023-02-08T11:48:23;8.70;59.50
20208;DHT22;10263;48.716;8.760;2023-02-08T11:50:57;8.70;58.40
20208;DHT22;10263;48.716;8.760;2023-02-08T11:53:27;8.60;60.10
20208;DHT22;10263;48.716;8.760;2023-02-08T11:56:15;8.70;58.90
20208;DHT22;10263;48.716;8.760;2023-02-08T11:58:58;8.70;60.00
20208;DHT22;10263;48.716;8.760;2023-02-08T12:01:27;8.80;58.70
20208;DHT22;10263;48.716;8.760;2023-02-08T12:03:56;8.80;59.30
20208;DHT22;10263;48.716;8.760;2023-02-08T12:09:39;8.80;60.00
20208;DHT22;10263;48.716;8.760;2023-02-08T12:12:16;8.70;58.40
20208;DHT22;10263;48.716;8.760;2023-02-08T12:14:52;8.60;58.30
20208;DHT22;10263;48.716;8.760;2023-02-08T12:17:40;8.60;58.80
20208;DHT22;10263;48.716;8.760;2023-02-08T12:20:33;8.60;57.90
20208;DHT22;10263;48.716;8.760;2023-02-08T12:23:25;8.70;61.00
20208;DHT22;10263;48.716;8.760;2023-02-08T12:25:59;8.60;59.50
20208;DHT22;10263;48.716;8.760;2023-02-08T12:28:40;8.70;60.30
20208;DHT22;10263;48.716;8.760;2023-02-08T12:31:13;8.80;59.30
20208;DHT22;10263;48.716;8.760;2023-02-08T12:33:51;9.10;59.00
20208;DHT22;10263;48.716;8.760;2023-02-08T12:36:29;9.10;58.40
20208;DHT22;10263;48.716;8.760;2023-02-08T12:39:15;9.00;59.10
20208;DHT22;10263;48.716;8.760;2023-02-08T12:42:27;9.20;59.20
20208;DHT22;10263;48.716;8.760;2023-02-08T12:45:13;9.00;58.30
20208;DHT22;10263;48.716;8.760;2023-02-08T12:47:56;9.30;60.00
20208;DHT22;10263;48.716;8.760;2023-02-08T12:50:32;9.00;59.70
20208;DHT22;10263;48.716;8.760;2023-02-08T12:53:09;9.10;57.90
20208;DHT22;10263;48.716;8.760;2023-02-08T12:55:41;9.00;59.70
20208;DHT22;10263;48.716;8.760;2023-02-08T12:58:21;9.10;59.80
20208;DHT22;10263;48.716;8.760;2023-02-08T13:00:51;9.10;59.50
20208;DHT22;10263;48.716;8.760;2023-02-08T13:03:29;9.10;56.80
20208;DHT22;10263;48.716;8.760;2023-02-08T13:05:57;8.80;56.80
20208;DHT22;10263;48.716;8.760;2023-02-08T13:08:28;8.90;57.40
20208;DHT22;10263;48.716;8.760;2023-02-08T13:11:00;8.30;58.30
20208;DHT22;10263;48.716;8.760;2023-02-08T13:13:32;8.40;57.40
20208;DHT22;10263;48.716;8.760;2023-02-08T13:16:02;8.40;58.60
20208;DHT22;10263;48.716;8.760;2023-02-08T13:18:36;8.40;58.40
20208;DHT22;10263;48.716;8.760;2023-02-08T13:21:07;8.40;56.80
20208;DHT22;10263;48.716;8.760;2023-02-08T13:23:39;8.30;58.60
20208;DHT22;10263;48.716;8.760;2023-02-08T13:26:11;8.30;59.30
20208;DHT22;10263;48.716;8.760;2023-02-08T13:28:41;8.40;59.10
20208;DHT22;10263;48.716;8.760;2023-02-08T13:31:13;8.00;57.80
20208;DHT22;10263;48.716;8.760;2023-02-08T13:33:44;8.50;58.00
20208;DHT22;10263;48.716;8.760;2023-02-08T13:36:19;8.50;56.80
20208;DHT22;10263;48.716;8.760;2023-02-08T13:38:47;8.80;56.20
20208;DHT22;10263;48.716;8.760;2023-02-08T13:41:18;9.10;55.90
20208;DHT22;10263;48.716;8.760;2023-02-08T13:43:48;9.20;54.50
20208;DHT22;10263;48.716;8.760;2023-02-08T13:46:17;9.20;53.60
20208;DHT22;10263;48.716;8.760;2023-02-08T13:48:47;9.80;52.80
20208;DHT22;10263;48.716;8.760;2023-02-08T13:51:49;10.40;51.90
20208;DHT22;10263;48.716;8.760;2023-02-08T13:54:16;11.10;50.90
20208;DHT22;10263;48.716;8.760;2023-02-08T13:56:46;12.00;50.80
20208;DHT22;10263;48.716;8.760;2023-02-08T13:59:29;12.80;51.20
20208;DHT22;10263;48.716;8.760;2023-02-08T14:02:28;13.70;49.20
20208;DHT22;10263;48.716;8.760;2023-02-08T14:05:32;14.20;47.60
20208;DHT22;10263;48.716;8.760;2023-02-08T14:08:01;14.30;45.80
20208;DHT22;10263;48.716;8.760;2023-02-08T14:10:33;14.70;47.80
20208;DHT22;10263;48.716;8.760;2023-02-08T14:13:18;15.00;48.40
20208;DHT22;10263;48.716;8.760;2023-02-08T14:16:23;15.60;45.20
20208;DHT22;10263;48.716;8.760;2023-02-08T14:18:53;16.30;43.70
20208;DHT22;10263;48.716;8.760;2023-02-08T14:21:31;16.70;41.80
20208;DHT22;10263;48.716;8.760;2023-02-08T14:24:00;17.20;41.20
20208;DHT22;10263;48.716;8.760;2023-02-08T14:26:28;17.80;40.50
20208;DHT22;10263;48.716;8.760;2023-02-08T14:28:59;17.80;39.40
20208;DHT22;10263;48.716;8.760;2023-02-08T14:31:41;22.30;42.50
20208;DHT22;10263;48.716;8.760;2023-02-08T14:34:30;18.40;39.50
20208;DHT22;10263;48.716;8.760;2023-02-08T14:37:01;19.30;38.20
20208;DHT22;10263;48.716;8.760;2023-02-08T14:39:30;19.30;36.80
20208;DHT22;10263;48.716;8.760;2023-02-08T14:41:58;19.40;37.10
20208;DHT22;10263;48.716;8.760;2023-02-08T14:44:57;19.50;37.00
20208;DHT22;10263;48.716;8.760;2023-02-08T14:47:50;18.70;35.40
20208;DHT22;10263;48.716;8.760;2023-02-08T14:50:21;17.00;37.00
20208;DHT22;10263;48.716;8.760;2023-02-08T14:52:56;15.60;39.00
20208;DHT22;10263;48.716;8.760;2023-02-08T14:55:26;14.10;40.00
20208;DHT22;10263;48.716;8.760;2023-02-08T14:57:56;12.80;41.90
20208;DHT22;10263;48.716;8.760;2023-02-08T15:00:28;11.80;42.90
20208;DHT22;10263;48.716;8.760;2023-02-08T15:02:56;10.90;43.90
20208;DHT22;10263;48.716;8.760;2023-02-08T15:05:25;10.10;46.10
20208;DHT22;10263;48.716;8.760;2023-02-08T15:07:54;9.40;48.20
20208;DHT22;10263;48.716;8.760;2023-02-08T15:10:22;9.10;48.60
20208;DHT22;10263;48.716;8.760;2023-02-08T15:12:52;8.80;50.30
20208;DHT22;10263;48.716;8.760;2023-02-08T15:15:24;8.50;51.20
20208;DHT22;10263;48.716;8.760;2023-02-08T15:17:54;8.20;50.50
20208;DHT22;10263;48.716;8.760;2023-02-08T15:20:22;7.90;51.20
20208;DHT22;10263;48.716;8.760;2023-02-08T15:22:57;7.60;52.30
20208;DHT22;10263;48.716;8.760;2023-02-08T15:25:25;7.40;52.90
20208;DHT22;10263;48.716;8.760;2023-02-08T15:27:55;7.20;53.10
20208;DHT22;10263;48.716;8.760;2023-02-08T15:30:24;7.10;53.80
20208;DHT22;10263;48.716;8.760;2023-02-08T15:32:53;6.90;53.70
20208;DHT22;10263;48.716;8.760;2023-02-08T15:35:20;6.80;55.00
20208;DHT22;10263;48.716;8.760;2023-02-08T15:37:49;6.70;55.20
20208;DHT22;10263;48.716;8.760;2023-02-08T15:40:26;6.60;55.50
20208;DHT22;10263;48.716;8.760;2023-02-08T15:45:23;6.30;56.90
20208;DHT22;10263;48.716;8.760;2023-02-08T15:47:52;6.20;57.40
20208;DHT22;10263;48.716;8.760;2023-02-08T15:50:21;6.40;57.70
20208;DHT22;10263;48.716;8.760;2023-02-08T15:52:53;6.20;58.60
20208;DHT22;10263;48.716;8.760;2023-02-08T15:55:22;4.10;57.70
20208;DHT22;10263;48.716;8.760;2023-02-08T15:57:54;5.60;60.70
20208;DHT22;10263;48.716;8.760;2023-02-08T16:00:24;5.50;60.60
20208;DHT22;10263;48.716;8.760;2023-02-08T16:02:58;5.30;61.00
20208;DHT22;10263;48.716;8.760;2023-02-08T16:05:28;5.20;62.80
20208;DHT22;10263;48.716;8.760;2023-02-08T16:10:31;4.80;63.70
20208;DHT22;10263;48.716;8.760;2023-02-08T16:13:02;6.50;66.30
20208;DHT22;10263;48.716;8.760;2023-02-08T16:15:41;4.60;65.20
20208;DHT22;10263;48.716;8.760;2023-02-08T16:18:38;4.40;65.60
20208;DHT22;10263;48.716;8.760;2023-02-08T16:21:19;4.10;66.90
20208;DHT22;10263;48.716;8.760;2023-02-08T16:23:51;4.10;66.40
20208;DHT22;10263;48.716;8.760;2023-02-08T16:26:20;3.90;66.70
20208;DHT22;10263;48.716;8.760;2023-02-08T16:28:56;3.80;67.40
20208;DHT22;10263;48.716;8.760;2023-02-08T16:31:25;3.60;67.10
20208;DHT22;10263;48.716;8.760;2023-02-08T16:34:01;3.40;67.80
20208;DHT22;10263;48.716;8.760;2023-02-08T16:36:33;3.40;69.00
20208;DHT22;10263;48.716;8.760;2023-02-08T16:42:02;3.10;70.40
20208;DHT22;10263;48.716;8.760;2023-02-08T16:44:32;3.00;70.70
20208;DHT22;10263;48.716;8.760;2023-02-08T16:47:01;2.80;71.10
20208;DHT22;10263;48.716;8.760;2023-02-08T16:49:49;2.70;71.50
20208;DHT22;10263;48.716;8.760;2023-02-08T17:02:10;2.00;72.50
20208;DHT22;10263;48.716;8.760;2023-02-08T17:07:10;2.00;74.40
20208;DHT22;10263;48.716;8.760;2023-02-08T17:24:28;1.40;77.70
20208;DHT22;10263;48.716;8.760;2023-02-08T17:39:11;1.00;80.30
20208;DHT22;10263;48.716;8.760;2023-02-08T17:41:39;0.80;81.00
20208;DHT22;10263;48.716;8.760;2023-02-08T17:51:30;0.60;81.90
20208;DHT22;10263;48.716;8.760;2023-02-08T17:56:26;0.40;81.90
20208;DHT22;10263;48.716;8.760;2023-02-08T17:58:55;0.50;82.60
20208;DHT22;10263;48.716;8.760;2023-02-08T18:01:26;0.40;82.50
20208;DHT22;10263;48.716;8.760;2023-02-08T18:03:53;3.40;85.40
20208;DHT22;10263;48.716;8.760;2023-02-08T18:06:20;0.30;83.50
20208;DHT22;10263;48.716;8.760;2023-02-08T18:11:17;0.20;83.60
20208;DHT22;10263;48.716;8.760;2023-02-08T18:13:46;1.80;86.00
20208;DHT22;10263;48.716;8.760;2023-02-08T18:16:16;0.10;84.70
20208;DHT22;10263;48.716;8.760;2023-02-08T18:21:11;0.00;85.50
20208;DHT22;10263;48.716;8.760;2023-02-08T18:26:08;-0.10;86.50
20208;DHT22;10263;48.716;8.760;2023-02-08T18:31:03;-0.40;87.20
20208;DHT22;10263;48.716;8.760;2023-02-08T18:33:33;-0.30;87.40
20208;DHT22;10263;48.716;8.760;2023-02-08T18:36:00;-0.40;87.30
20208;DHT22;10263;48.716;8.760;2023-02-08T18:38:28;-0.50;88.60
20208;DHT22;10263;48.716;8.760;2023-02-08T18:45:59;-0.50;89.40
20208;DHT22;10263;48.716;8.760;2023-02-08T18:50:57;-0.40;90.00
20208;DHT22;10263;48.716;8.760;2023-02-08T18:58:21;-0.60;91.40
20208;DHT22;10263;48.716;8.760;2023-02-08T19:03:15;-0.80;91.60
20208;DHT22;10263;48.716;8.760;2023-02-08T19:05:43;-0.80;92.80
20208;DHT22;10263;48.716;8.760;2023-02-08T19:08:12;-0.80;92.20
20208;DHT22;10263;48.716;8.760;2023-02-08T19:10:40;-0.90;92.30
20208;DHT22;10263;48.716;8.760;2023-02-08T19:15:34;-2.90;92.00
20208;DHT22;10263;48.716;8.760;2023-02-08T19:18:01;-1.00;93.60
20208;DHT22;10263;48.716;8.760;2023-02-08T19:20:28;-1.10;93.80
20208;DHT22;10263;48.716;8.760;2023-02-08T19:22:55;-1.00;94.40
20208;DHT22;10263;48.716;8.760;2023-02-08T19:25:24;-1.10;94.00
20208;DHT22;10263;48.716;8.760;2023-02-08T19:27:51;-1.00;94.90
20208;DHT22;10263;48.716;8.760;2023-02-08T19:30:18;-1.20;95.10
20208;DHT22;10263;48.716;8.760;2023-02-08T19:35:13;-1.20;95.90
20208;DHT22;10263;48.716;8.760;2023-02-08T19:37:39;-1.40;95.70
20208;DHT22;10263;48.716;8.760;2023-02-08T19:40:09;-1.40;95.80
20208;DHT22;10263;48.716;8.760;2023-02-08T19:42:37;-1.40;96.10
20208;DHT22;10263;48.716;8.760;2023-02-08T19:45:05;-1.50;96.60
20208;DHT22;10263;48.716;8.760;2023-02-08T19:52:26;-1.60;97.70
20208;DHT22;10263;48.716;8.760;2023-02-08T19:54:53;-1.60;97.60
20208;DHT22;10263;48.716;8.760;2023-02-08T19:59:48;-1.60;98.10
20208;DHT22;10263;48.716;8.760;2023-02-08T20:04:43;-1.90;98.50
20208;DHT22;10263;48.716;8.760;2023-02-08T20:12:05;-1.80;99.20
20208;DHT22;10263;48.716;8.760;2023-02-08T20:14:32;-1.80;99.90
20208;DHT22;10263;48.716;8.760;2023-02-08T20:17:04;-1.90;99.70
20208;DHT22;10263;48.716;8.760;2023-02-08T20:19:35;-1.90;99.90
20208;DHT22;10263;48.716;8.760;2023-02-08T20:22:03;-1.90;99.90
20208;DHT22;10263;48.716;8.760;2023-02-08T20:24:32;-2.00;99.90
20208;DHT22;10263;48.716;8.760;2023-02-08T20:27:02;-2.10;99.90
20208;DHT22;10263;48.716;8.760;2023-02-08T20:29:31;-2.10;99.90
20208;DHT22;10263;48.716;8.760;2023-02-08T20:32:02;-2.10;99.90
20208;DHT22;10263;48.716;8.760;2023-02-08T20:34:31;-2.20;99.90
20208;DHT22;10263;48.716;8.760;2023-02-08T20:37:01;-2.10;99.90
20208;DHT22;10263;48.716;8.760;2023-02-08T20:39:30;-2.20;99.90
20208;DHT22;10263;48.716;8.760;2023-02-08T20:41:59;-2.20;99.90
20208;DHT22;10263;48.716;8.760;2023-02-08T20:44:29;-2.20;99.90
20208;DHT22;10263;48.716;8.760;2023-02-08T20:47:01;-2.30;99.90
20208;DHT22;10263;48.716;8.760;2023-02-08T20:49:31;-2.30;99.90
20208;DHT22;10263;48.716;8.760;2023-02-08T20:52:00;-2.40;99.90
20208;DHT22;10263;48.716;8.760;2023-02-08T20:56:57;-2.40;99.90
20208;DHT22;10263;48.716;8.760;2023-02-08T20:59:26;-2.40;99.90
20208;DHT22;10263;48.716;8.760;2023-02-08T21:01:55;-2.50;99.90
20208;DHT22;10263;48.716;8.760;2023-02-08T21:04:25;-2.60;99.90
20208;DHT22;10263;48.716;8.760;2023-02-08T21:11:52;-2.70;99.90
20208;DHT22;10263;48.716;8.760;2023-02-08T21:14:21;-2.70;99.90
20208;DHT22;10263;48.716;8.760;2023-02-08T21:16:52;-2.70;99.90
20208;DHT22;10263;48.716;8.760;2023-02-08T21:19:22;-2.70;99.90
20208;DHT22;10263;48.716;8.760;2023-02-08T21:21:53;-2.90;99.90
20208;DHT22;10263;48.716;8.760;2023-02-08T21:29:26;-2.90;99.90
20208;DHT22;10263;48.716;8.760;2023-02-08T21:32:07;-2.80;99.90
20208;DHT22;10263;48.716;8.760;2023-02-08T21:35:01;-2.90;99.90
20208;DHT22;10263;48.716;8.760;2023-02-08T21:37:41;-2.90;99.90
20208;DHT22;10263;48.716;8.760;2023-02-08T21:42:52;-3.00;99.90
20208;DHT22;10263;48.716;8.760;2023-02-08T21:45:54;-3.00;99.90
20208;DHT22;10263;48.716;8.760;2023-02-08T21:48:35;-2.90;99.90
20208;DHT22;10263;48.716;8.760;2023-02-08T21:51:20;-3.10;99.90
20208;DHT22;10263;48.716;8.760;2023-02-08T21:54:08;-3.20;99.90
20208;DHT22;10263;48.716;8.760;2023-02-08T22:01:51;-3.30;99.90
20208;DHT22;10263;48.716;8.760;2023-02-08T22:04:20;-3.30;99.90
20208;DHT22;10263;48.716;8.760;2023-02-08T22:09:19;-3.50;99.90
20208;DHT22;10263;48.716;8.760;2023-02-08T22:11:47;-3.40;99.90
20208;DHT22;10263;48.716;8.760;2023-02-08T22:19:08;-3.40;99.90
20208;DHT22;10263;48.716;8.760;2023-02-08T22:21:35;-3.50;99.90
20208;DHT22;10263;48.716;8.760;2023-02-08T22:24:02;-3.40;99.90
20208;DHT22;10263;48.716;8.760;2023-02-08T22:26:30;-3.50;99.90
20208;DHT22;10263;48.716;8.760;2023-02-08T22:31:25;-3.50;99.90
20208;DHT22;10263;48.716;8.760;2023-02-08T22:33:52;-3.40;99.90
20208;DHT22;10263;48.716;8.760;2023-02-08T22:36:19;-3.60;99.90
20208;DHT22;10263;48.716;8.760;2023-02-08T22:38:46;-3.70;99.90
20208;DHT22;10263;48.716;8.760;2023-02-08T22:41:14;-3.70;99.90
20208;DHT22;10263;48.716;8.760;2023-02-08T22:43:44;-3.80;99.90
20208;DHT22;10263;48.716;8.760;2023-02-08T22:46:11;-3.80;99.90
20208;DHT22;10263;48.716;8.760;2023-02-08T22:51:06;-3.90;99.90
20208;DHT22;10263;48.716;8.760;2023-02-08T22:53:33;-3.80;99.90
20208;DHT22;10263;48.716;8.760;2023-02-08T22:58:27;-4.00;99.90
20208;DHT22;10263;48.716;8.760;2023-02-08T23:00:56;-3.90;99.90